Time;durP1;ratioP1;P1;durP2;ratioP2;P2;SDS_P1;SDS_P2;PMS_P1;PMS_P2;Temp;Humidity;BMP_temperature;BMP_pressure;BME280_temperature;BME280_humidity;BME280_pressure;Samples;Min_cycle;Max_cycle;Signal;HPM_P1;HPM_P2
2021/08/19 00:02:01;;;;;;;11.38;7.65;;;;;;;;;;4999108;28;20203;-69
2021/08/19 00:04:26;;;;;;;6.88;6.20;;;;;;;;;;5011169;28;20241;-70
2021/08/19 00:06:51;;;;;;;8.32;6.65;;;;;;;;;;5009820;28;20194;-70
2021/08/19 00:09:16;;;;;;;8.70;7.07;;;;;;;;;;5008121;28;20195;-70
2021/08/19 00:11:42;;;;;;;7.43;6.65;;;;;;;;;;5009839;28;20176;-69
2021/08/19 00:14:07;;;;;;;9.05;6.30;;;;;;;;;;5009536;28;20850;-69
2021/08/19 00:16:32;;;;;;;7.10;6.32;;;;;;;;;;5001372;28;20175;-69
2021/08/19 00:18:57;;;;;;;7.35;6.30;;;;;;;;;;5006399;28;20222;-70
2021/08/19 00:21:22;;;;;;;7.47;6.53;;;;;;;;;;5007400;28;20191;-70
2021/08/19 00:23:48;;;;;;;7.43;6.50;;;;;;;;;;5005090;28;20651;-69
2021/08/19 00:26:13;;;;;;;7.93;6.30;;;;;;;;;;5003162;28;20203;-68
2021/08/19 00:28:38;;;;;;;8.35;6.50;;;;;;;;;;4999662;28;20199;-70
2021/08/19 00:31:03;;;;;;;6.75;6.13;;;;;;;;;;5008809;28;20609;-70
2021/08/19 00:33:29;;;;;;;8.20;6.20;;;;;;;;;;5008110;28;20651;-69
2021/08/19 00:35:54;;;;;;;5.40;4.90;;;;;;;;;;5003370;28;20200;-69
2021/08/19 00:38:19;;;;;;;7.32;5.57;;;;;;;;;;5001395;28;20207;-69
2021/08/19 00:40:45;;;;;;;8.25;5.57;;;;;;;;;;5002404;28;20175;-70
2021/08/19 00:43:10;;;;;;;8.18;5.63;;;;;;;;;;5005566;28;20205;-69
2021/08/19 00:45:35;;;;;;;8.18;5.82;;;;;;;;;;5005643;28;20219;-70
2021/08/19 00:48:00;;;;;;;6.55;5.13;;;;;;;;;;5004019;28;20192;-69
2021/08/19 00:50:26;;;;;;;6.72;5.68;;;;;;;;;;5011239;28;20187;-69
2021/08/19 00:52:51;;;;;;;8.25;5.53;;;;;;;;;;5010633;28;20233;-70
2021/08/19 00:55:17;;;;;;;5.45;4.95;;;;;;;;;;5007773;28;20267;-70
2021/08/19 00:57:42;;;;;;;6.50;4.88;;;;;;;;;;5000557;28;20673;-69
2021/08/19 01:00:08;;;;;;;9.07;5.35;;;;;;;;;;5001440;28;20214;-69
2021/08/19 01:02:34;;;;;;;5.70;4.95;;;;;;;;;;5005182;28;20222;-69
2021/08/19 01:04:59;;;;;;;5.72;5.05;;;;;;;;;;5006122;28;20231;-69
2021/08/19 01:07:24;;;;;;;5.60;5.00;;;;;;;;;;5005025;28;20179;-69
2021/08/19 01:09:49;;;;;;;5.78;5.13;;;;;;;;;;4999650;28;20186;-70
2021/08/19 01:12:14;;;;;;;5.35;4.65;;;;;;;;;;5001538;28;20175;-70
2021/08/19 01:14:44;;;;;;;6.22;4.85;;;;;;;;;;5010511;28;20187;-69
2021/08/19 01:17:10;;;;;;;5.60;5.05;;;;;;;;;;4998273;28;20180;-70
2021/08/19 01:19:35;;;;;;;7.13;4.75;;;;;;;;;;5008689;28;20188;-70
2021/08/19 01:22:00;;;;;;;4.93;4.22;;;;;;;;;;5007934;28;20262;-70
2021/08/19 01:24:25;;;;;;;6.38;5.32;;;;;;;;;;5004562;28;20270;-69
2021/08/19 01:26:52;;;;;;;5.00;4.45;;;;;;;;;;5004545;28;20187;-70
2021/08/19 01:29:18;;;;;;;6.60;5.13;;;;;;;;;;4999677;28;20196;-70
2021/08/19 01:31:54;;;;;;;6.43;4.78;;;;;;;;;;5001880;28;20313;-70
2021/08/19 01:34:19;;;;;;;6.18;4.88;;;;;;;;;;5001169;28;20707;-71
2021/08/19 01:36:45;;;;;;;10.20;4.78;;;;;;;;;;4994385;28;20331;-69
2021/08/19 01:39:10;;;;;;;7.03;5.03;;;;;;;;;;5010524;28;20195;-71
2021/08/19 01:41:35;;;;;;;7.43;4.65;;;;;;;;;;5007484;28;20430;-69
2021/08/19 01:44:00;;;;;;;4.95;4.45;;;;;;;;;;4998221;28;20176;-68
2021/08/19 01:46:25;;;;;;;5.95;4.90;;;;;;;;;;5003972;28;20690;-69
2021/08/19 01:48:51;;;;;;;6.40;5.30;;;;;;;;;;4995207;28;20279;-69
2021/08/19 01:51:16;;;;;;;6.05;5.43;;;;;;;;;;5003210;28;20175;-70
2021/08/19 01:53:42;;;;;;;6.00;5.05;;;;;;;;;;5014837;28;20175;-68
2021/08/19 01:56:07;;;;;;;6.47;5.10;;;;;;;;;;5007115;28;20191;-69
2021/08/19 01:58:32;;;;;;;6.82;5.25;;;;;;;;;;5010320;28;20775;-69
2021/08/19 02:00:58;;;;;;;7.30;5.38;;;;;;;;;;5006003;28;20184;-69
2021/08/19 02:03:23;;;;;;;8.48;5.53;;;;;;;;;;5005271;28;20179;-70
2021/08/19 02:05:48;;;;;;;6.68;5.43;;;;;;;;;;5007178;28;20211;-70
2021/08/19 02:08:14;;;;;;;7.40;5.75;;;;;;;;;;5008539;28;20195;-70
2021/08/19 02:10:39;;;;;;;8.23;6.00;;;;;;;;;;5005147;28;20262;-70
2021/08/19 02:13:05;;;;;;;6.20;5.55;;;;;;;;;;5007183;28;20190;-68
2021/08/19 02:15:31;;;;;;;7.90;6.18;;;;;;;;;;5003797;28;20202;-68
2021/08/19 02:17:56;;;;;;;7.70;6.30;;;;;;;;;;5008608;28;20801;-70
2021/08/19 02:20:21;;;;;;;7.47;6.45;;;;;;;;;;5008511;28;20282;-70
2021/08/19 02:22:49;;;;;;;7.60;6.63;;;;;;;;;;5010501;28;20660;-70
2021/08/19 02:25:15;;;;;;;13.25;8.05;;;;;;;;;;5011062;28;20590;-70
2021/08/19 02:27:41;;;;;;;10.65;8.07;;;;;;;;;;4983808;28;20204;-70
2021/08/19 02:30:07;;;;;;;8.55;7.65;;;;;;;;;;4989678;28;20211;-70
2021/08/19 02:32:32;;;;;;;9.30;8.40;;;;;;;;;;4990989;28;20267;-70
2021/08/19 02:34:58;;;;;;;10.68;9.68;;;;;;;;;;4988881;28;20199;-69
2021/08/19 02:37:23;;;;;;;12.43;9.88;;;;;;;;;;4990795;28;20215;-69
2021/08/19 02:39:48;;;;;;;11.90;10.82;;;;;;;;;;4990644;28;20231;-69
2021/08/19 02:42:13;;;;;;;11.30;10.13;;;;;;;;;;4990232;28;20614;-69
2021/08/19 02:44:39;;;;;;;11.10;10.10;;;;;;;;;;5007263;28;20183;-69
2021/08/19 02:47:06;;;;;;;12.50;11.30;;;;;;;;;;5005305;28;20233;-70
2021/08/19 02:49:31;;;;;;;12.90;11.70;;;;;;;;;;5006463;28;20663;-69
2021/08/19 02:51:56;;;;;;;13.07;11.77;;;;;;;;;;4999642;28;20183;-70
2021/08/19 02:54:21;;;;;;;14.45;12.98;;;;;;;;;;5003550;28;20648;-70
2021/08/19 02:56:47;;;;;;;13.65;12.35;;;;;;;;;;5003990;28;20218;-69
2021/08/19 02:59:12;;;;;;;14.35;12.98;;;;;;;;;;5006326;28;20195;-71
2021/08/19 03:01:37;;;;;;;13.73;12.32;;;;;;;;;;5007750;28;20175;-69
2021/08/19 03:04:02;;;;;;;13.95;12.55;;;;;;;;;;5002262;28;20187;-70
2021/08/19 03:06:27;;;;;;;13.82;12.40;;;;;;;;;;5007909;28;20235;-71
2021/08/19 03:08:53;;;;;;;14.10;12.50;;;;;;;;;;5007991;28;20238;-70
2021/08/19 03:11:18;;;;;;;14.50;13.18;;;;;;;;;;4994580;28;20184;-70
2021/08/19 03:13:43;;;;;;;15.15;13.10;;;;;;;;;;5001426;28;20190;-70
2021/08/19 03:16:08;;;;;;;14.38;12.98;;;;;;;;;;4993022;28;20251;-71
2021/08/19 03:18:34;;;;;;;15.07;13.63;;;;;;;;;;4991337;28;20208;-69
2021/08/19 03:20:59;;;;;;;14.38;12.93;;;;;;;;;;4988118;28;20227;-70
2021/08/19 03:23:24;;;;;;;15.05;13.55;;;;;;;;;;4989913;28;20172;-70
2021/08/19 03:25:50;;;;;;;15.02;13.55;;;;;;;;;;4986934;28;20960;-69
2021/08/19 03:28:15;;;;;;;14.52;13.02;;;;;;;;;;4992116;28;20207;-71
2021/08/19 03:30:40;;;;;;;16.15;13.77;;;;;;;;;;4992066;28;20225;-71
2021/08/19 03:33:06;;;;;;;14.02;12.73;;;;;;;;;;5009195;28;20179;-69
2021/08/19 03:35:31;;;;;;;14.95;13.10;;;;;;;;;;5013316;28;20171;-71
2021/08/19 03:37:57;;;;;;;14.43;13.02;;;;;;;;;;5003551;28;20206;-69
2021/08/19 03:40:22;;;;;;;14.02;12.52;;;;;;;;;;5013825;28;20179;-69
2021/08/19 03:42:47;;;;;;;13.38;12.00;;;;;;;;;;5011416;28;20689;-71
2021/08/19 03:45:15;;;;;;;14.52;13.02;;;;;;;;;;5005138;28;20191;-70
2021/08/19 03:47:41;;;;;;;14.50;13.00;;;;;;;;;;5005146;28;20196;-69
2021/08/19 03:50:09;;;;;;;13.32;12.13;;;;;;;;;;5008711;28;20711;-70
2021/08/19 03:52:34;;;;;;;13.35;11.98;;;;;;;;;;5012524;28;20198;-70
2021/08/19 03:54:59;;;;;;;13.25;11.85;;;;;;;;;;5014514;28;20210;-70
2021/08/19 03:57:25;;;;;;;13.32;11.45;;;;;;;;;;5007516;28;20259;-71
2021/08/19 03:59:50;;;;;;;12.75;11.45;;;;;;;;;;5009562;28;20229;-69
2021/08/19 04:02:15;;;;;;;14.60;11.55;;;;;;;;;;4998423;28;20202;-70
2021/08/19 04:04:40;;;;;;;11.82;10.73;;;;;;;;;;5006325;28;20807;-69
2021/08/19 04:07:05;;;;;;;11.68;10.57;;;;;;;;;;5006553;28;20243;-70
2021/08/19 04:09:30;;;;;;;11.93;9.48;;;;;;;;;;5012570;28;20194;-70
2021/08/19 04:11:56;;;;;;;10.47;9.43;;;;;;;;;;5002053;28;20190;-70
2021/08/19 04:14:21;;;;;;;9.60;8.70;;;;;;;;;;5006422;28;20442;-70
2021/08/19 04:16:46;;;;;;;10.25;9.23;;;;;;;;;;5005579;28;20262;-71
2021/08/19 04:19:11;;;;;;;11.35;8.50;;;;;;;;;;5005160;28;20261;-71
2021/08/19 04:21:36;;;;;;;9.00;8.10;;;;;;;;;;5010450;28;20683;-70
2021/08/19 04:24:01;;;;;;;8.90;7.85;;;;;;;;;;5010060;28;20215;-69
2021/08/19 04:26:27;;;;;;;8.05;7.00;;;;;;;;;;5010434;28;20195;-69
2021/08/19 04:28:52;;;;;;;7.72;6.93;;;;;;;;;;5004305;28;20199;-69
2021/08/19 04:31:17;;;;;;;8.13;7.32;;;;;;;;;;5010088;28;20207;-70
2021/08/19 04:33:42;;;;;;;7.55;6.85;;;;;;;;;;5010298;28;20211;-70
2021/08/19 04:36:08;;;;;;;8.18;7.10;;;;;;;;;;5007101;28;20191;-70
2021/08/19 04:38:34;;;;;;;8.50;6.80;;;;;;;;;;5009620;28;20198;-71
2021/08/19 04:40:59;;;;;;;10.63;6.80;;;;;;;;;;5007175;28;20186;-71
2021/08/19 04:43:24;;;;;;;6.88;6.28;;;;;;;;;;5009483;28;20551;-69
2021/08/19 04:45:49;;;;;;;8.20;6.82;;;;;;;;;;5007295;28;20216;-71
2021/08/19 04:48:15;;;;;;;8.55;6.75;;;;;;;;;;5008414;28;20568;-70
2021/08/19 04:50:40;;;;;;;8.05;6.20;;;;;;;;;;5009829;28;20186;-70
2021/08/19 04:53:05;;;;;;;7.30;6.30;;;;;;;;;;5000606;28;20172;-69
2021/08/19 04:55:31;;;;;;;7.05;6.40;;;;;;;;;;4999267;28;20183;-70
2021/08/19 04:57:56;;;;;;;8.18;6.20;;;;;;;;;;5005917;28;20204;-70
2021/08/19 05:00:21;;;;;;;7.60;6.30;;;;;;;;;;5007223;28;20183;-69
2021/08/19 05:02:46;;;;;;;7.80;6.32;;;;;;;;;;5009350;28;20329;-69
2021/08/19 05:05:11;;;;;;;9.48;6.90;;;;;;;;;;5007094;28;20222;-69
2021/08/19 05:07:37;;;;;;;7.53;6.53;;;;;;;;;;5007095;28;20262;-71
2021/08/19 05:10:02;;;;;;;7.18;6.40;;;;;;;;;;5009243;28;20193;-69
2021/08/19 05:12:27;;;;;;;7.30;6.00;;;;;;;;;;5008741;28;20389;-69
2021/08/19 05:14:52;;;;;;;6.80;5.53;;;;;;;;;;5008536;28;20194;-69
2021/08/19 05:17:18;;;;;;;6.38;5.65;;;;;;;;;;5005630;28;20194;-70
2021/08/19 05:19:43;;;;;;;8.93;5.95;;;;;;;;;;5006944;28;20180;-70
2021/08/19 05:22:08;;;;;;;7.40;6.43;;;;;;;;;;5008769;28;20666;-69
2021/08/19 05:24:33;;;;;;;6.88;5.80;;;;;;;;;;5008696;28;20636;-69
2021/08/19 05:26:58;;;;;;;7.28;5.95;;;;;;;;;;5000662;28;20211;-69
2021/08/19 05:29:23;;;;;;;6.53;5.70;;;;;;;;;;5004376;28;20195;-70
2021/08/19 05:31:49;;;;;;;6.72;5.93;;;;;;;;;;4994332;28;20263;-70
2021/08/19 05:34:14;;;;;;;6.40;5.80;;;;;;;;;;5003356;28;20182;-71
2021/08/19 05:36:40;;;;;;;6.78;6.05;;;;;;;;;;5006547;28;20262;-69
2021/08/19 05:39:05;;;;;;;7.90;6.50;;;;;;;;;;5007606;28;20203;-69
2021/08/19 05:41:30;;;;;;;6.25;5.65;;;;;;;;;;5010566;28;20179;-68
2021/08/19 05:43:56;;;;;;;6.55;5.88;;;;;;;;;;5005002;28;20180;-69
2021/08/19 05:46:21;;;;;;;6.82;6.15;;;;;;;;;;4997857;28;20200;-70
2021/08/19 05:48:46;;;;;;;7.28;6.53;;;;;;;;;;4998927;28;20211;-69
2021/08/19 05:51:12;;;;;;;7.82;6.03;;;;;;;;;;5004105;28;20180;-66
2021/08/19 05:53:37;;;;;;;8.23;6.43;;;;;;;;;;5008121;28;20662;-68
2021/08/19 05:56:02;;;;;;;13.25;7.65;;;;;;;;;;5004878;28;20554;-67
2021/08/19 05:58:27;;;;;;;8.43;7.13;;;;;;;;;;4990085;28;20926;-69
2021/08/19 06:00:53;;;;;;;8.88;7.63;;;;;;;;;;4991202;28;20188;-68
2021/08/19 06:03:19;;;;;;;8.10;7.32;;;;;;;;;;4994110;28;20234;-68
2021/08/19 06:05:45;;;;;;;9.60;8.20;;;;;;;;;;4992055;28;20199;-69
2021/08/19 06:08:10;;;;;;;10.30;8.20;;;;;;;;;;4992829;28;21307;-68
2021/08/19 06:10:35;;;;;;;9.20;8.30;;;;;;;;;;4990120;28;20178;-69
2021/08/19 06:13:01;;;;;;;9.05;8.15;;;;;;;;;;4998413;28;20318;-69
2021/08/19 06:15:26;;;;;;;10.93;8.90;;;;;;;;;;4998948;28;20203;-68
2021/08/19 06:17:51;;;;;;;10.25;9.07;;;;;;;;;;4999878;28;20203;-69
2021/08/19 06:20:16;;;;;;;12.73;9.02;;;;;;;;;;5001661;28;20202;-69
2021/08/19 06:22:41;;;;;;;12.15;8.95;;;;;;;;;;5010743;28;20278;-68
2021/08/19 06:25:07;;;;;;;12.77;9.35;;;;;;;;;;5009843;28;20238;-68
2021/08/19 06:27:32;;;;;;;11.05;8.98;;;;;;;;;;5002630;28;20214;-68
2021/08/19 06:29:57;;;;;;;10.90;9.75;;;;;;;;;;5004540;28;20176;-68
2021/08/19 06:32:22;;;;;;;10.50;9.40;;;;;;;;;;5009742;28;20183;-69
2021/08/19 06:34:48;;;;;;;11.98;9.02;;;;;;;;;;5002420;28;20427;-68
2021/08/19 06:37:13;;;;;;;11.25;9.38;;;;;;;;;;5002596;28;20186;-69
2021/08/19 06:39:38;;;;;;;11.48;10.00;;;;;;;;;;5010370;28;20254;-68
2021/08/19 06:42:03;;;;;;;11.45;8.95;;;;;;;;;;5010960;28;20183;-67
2021/08/19 06:44:28;;;;;;;9.18;8.07;;;;;;;;;;5001766;28;20619;-68
2021/08/19 06:46:54;;;;;;;9.48;8.57;;;;;;;;;;4992337;28;20203;-69
2021/08/19 06:49:19;;;;;;;13.98;9.48;;;;;;;;;;4999837;28;20191;-70
2021/08/19 06:51:44;;;;;;;7.70;7.00;;;;;;;;;;5006388;28;20207;-67
2021/08/19 06:54:09;;;;;;;9.07;8.18;;;;;;;;;;5008938;28;20464;-69
2021/08/19 06:56:34;;;;;;;8.23;7.47;;;;;;;;;;5008472;28;20571;-68
2021/08/19 06:59:00;;;;;;;10.80;7.90;;;;;;;;;;4997396;28;20780;-70
2021/08/19 07:01:25;;;;;;;11.00;8.03;;;;;;;;;;5000120;28;20608;-70
2021/08/19 07:03:50;;;;;;;9.00;8.13;;;;;;;;;;5006778;28;20465;-68
2021/08/19 07:06:15;;;;;;;9.60;8.77;;;;;;;;;;5003452;28;20453;-69
2021/08/19 07:08:41;;;;;;;8.80;8.00;;;;;;;;;;5012140;28;20191;-69
2021/08/19 07:11:06;;;;;;;9.48;8.57;;;;;;;;;;5014398;28;20553;-69
2021/08/19 07:13:31;;;;;;;10.10;9.07;;;;;;;;;;5009920;28;20298;-69
2021/08/19 07:15:57;;;;;;;10.10;8.70;;;;;;;;;;5001427;28;20194;-69
2021/08/19 07:18:22;;;;;;;9.10;8.30;;;;;;;;;;4998605;28;20965;-69
2021/08/19 07:20:47;;;;;;;10.25;9.02;;;;;;;;;;5005251;28;20445;-69
2021/08/19 07:23:12;;;;;;;10.23;9.30;;;;;;;;;;5012642;28;20175;-69
2021/08/19 07:25:37;;;;;;;9.90;9.00;;;;;;;;;;5008227;28;20293;-70
2021/08/19 07:28:03;;;;;;;10.10;8.32;;;;;;;;;;5018267;28;20965;-69
2021/08/19 07:30:28;;;;;;;11.13;9.25;;;;;;;;;;5007283;28;20176;-69
2021/08/19 07:32:53;;;;;;;10.30;8.80;;;;;;;;;;5011337;28;20175;-68
2021/08/19 07:35:19;;;;;;;11.88;8.80;;;;;;;;;;5005288;28;20172;-67
2021/08/19 07:37:45;;;;;;;11.25;8.38;;;;;;;;;;4999855;28;20210;-78
2021/08/19 07:40:11;;;;;;;10.20;8.35;;;;;;;;;;4991465;28;20258;-69
2021/08/19 07:42:36;;;;;;;9.65;8.75;;;;;;;;;;5010505;28;20659;-68
2021/08/19 07:45:13;;;;;;;10.10;8.23;;;;;;;;;;5001898;28;20382;-69
2021/08/19 07:47:39;;;;;;;9.50;8.52;;;;;;;;;;5006641;28;20734;-69
2021/08/19 07:50:04;;;;;;;9.23;8.32;;;;;;;;;;5003112;28;20175;-68
2021/08/19 07:52:29;;;;;;;9.63;7.13;;;;;;;;;;5005957;28;20222;-69
2021/08/19 07:54:54;;;;;;;9.98;8.25;;;;;;;;;;5011671;28;20171;-69
2021/08/19 07:57:20;;;;;;;9.23;8.30;;;;;;;;;;5015853;28;20241;-70
2021/08/19 07:59:45;;;;;;;8.68;7.78;;;;;;;;;;5008681;28;20187;-68
2021/08/19 08:02:10;;;;;;;9.55;8.10;;;;;;;;;;5012321;28;20254;-71
2021/08/19 08:04:35;;;;;;;11.38;7.70;;;;;;;;;;5011659;28;20230;-69
2021/08/19 08:07:01;;;;;;;11.35;7.40;;;;;;;;;;4994929;28;20292;-69
2021/08/19 08:09:26;;;;;;;9.98;7.45;;;;;;;;;;5008449;28;20299;-69
2021/08/19 08:11:51;;;;;;;9.25;7.80;;;;;;;;;;5017397;28;20240;-69
2021/08/19 08:14:16;;;;;;;7.95;7.15;;;;;;;;;;5006675;28;20175;-69
2021/08/19 08:16:41;;;;;;;12.70;8.05;;;;;;;;;;5005740;28;20187;-70
2021/08/19 08:19:07;;;;;;;9.70;7.60;;;;;;;;;;5005423;28;20215;-70
2021/08/19 08:21:32;;;;;;;10.43;7.47;;;;;;;;;;4998173;28;20188;-70
2021/08/19 08:23:58;;;;;;;9.95;6.97;;;;;;;;;;4993040;28;20679;-69
2021/08/19 08:26:24;;;;;;;9.13;7.50;;;;;;;;;;4994864;28;20199;-70
2021/08/19 08:28:51;;;;;;;8.98;7.38;;;;;;;;;;5006312;28;20192;-68
2021/08/19 08:31:16;;;;;;;9.18;7.18;;;;;;;;;;5008409;28;20179;-67
2021/08/19 08:33:42;;;;;;;7.88;7.07;;;;;;;;;;5009239;28;20180;-68
2021/08/19 08:36:07;;;;;;;11.45;7.15;;;;;;;;;;5004506;28;20186;-67
2021/08/19 08:38:32;;;;;;;10.48;6.97;;;;;;;;;;5011731;28;20211;-67
2021/08/19 08:40:58;;;;;;;8.60;6.97;;;;;;;;;;5011609;28;20180;-68
2021/08/19 08:43:23;;;;;;;8.48;6.93;;;;;;;;;;5011045;28;20276;-67
2021/08/19 08:45:49;;;;;;;9.98;6.82;;;;;;;;;;4996321;28;20690;-69
2021/08/19 08:48:19;;;;;;;10.40;7.38;;;;;;;;;;5006438;28;20210;-67
2021/08/19 08:50:46;;;;;;;7.88;6.35;;;;;;;;;;5003846;28;20184;-68
2021/08/19 08:53:12;;;;;;;11.02;7.00;;;;;;;;;;5011765;28;20175;-69
2021/08/19 08:55:37;;;;;;;9.50;6.88;;;;;;;;;;5011709;28;20230;-68
2021/08/19 08:58:02;;;;;;;7.55;6.72;;;;;;;;;;5002512;28;20210;-68
2021/08/19 09:00:27;;;;;;;7.95;6.70;;;;;;;;;;5007980;28;20185;-68
2021/08/19 09:02:52;;;;;;;8.65;6.10;;;;;;;;;;4994601;28;20275;-68
2021/08/19 09:05:22;;;;;;;7.68;5.90;;;;;;;;;;5009085;28;20298;-67
2021/08/19 09:07:54;;;;;;;7.95;6.53;;;;;;;;;;5008951;28;20196;-67
2021/08/19 09:10:21;;;;;;;11.10;7.38;;;;;;;;;;5010589;28;20571;-68
2021/08/19 09:12:46;;;;;;;9.85;7.00;;;;;;;;;;5012545;28;20199;-69
2021/08/19 09:15:12;;;;;;;8.00;7.15;;;;;;;;;;4999053;28;20221;-68
2021/08/19 09:17:41;;;;;;;12.90;7.93;;;;;;;;;;5007431;28;20231;-67
2021/08/19 09:20:07;;;;;;;8.07;7.05;;;;;;;;;;5007687;28;20198;-70
2021/08/19 09:22:51;;;;;;;12.20;8.55;;;;;;;;;;5010016;28;20175;-67
2021/08/19 09:25:40;;;;;;;11.90;8.07;;;;;;;;;;5005005;28;20210;-70
2021/08/19 09:28:24;;;;;;;8.63;7.32;;;;;;;;;;5009293;28;20277;-73
2021/08/19 09:30:49;;;;;;;8.98;8.05;;;;;;;;;;5003411;28;20666;-71
2021/08/19 09:33:16;;;;;;;9.60;8.35;;;;;;;;;;5002363;28;20186;-71
2021/08/19 09:35:42;;;;;;;8.90;8.00;;;;;;;;;;5004773;28;20581;-71
2021/08/19 09:38:08;;;;;;;10.25;7.60;;;;;;;;;;5007356;28;20203;-66
2021/08/19 09:40:34;;;;;;;9.35;7.68;;;;;;;;;;5010420;28;20798;-67
2021/08/19 09:42:59;;;;;;;8.23;7.43;;;;;;;;;;5016082;28;20194;-70
2021/08/19 09:45:27;;;;;;;10.20;8.27;;;;;;;;;;5009168;28;20672;-70
2021/08/19 09:48:04;;;;;;;8.27;7.38;;;;;;;;;;5003028;28;20286;-69
2021/08/19 09:50:30;;;;;;;9.02;7.97;;;;;;;;;;5002386;28;20183;-69
2021/08/19 09:52:55;;;;;;;9.60;7.97;;;;;;;;;;5008002;28;20187;-68
2021/08/19 09:55:22;;;;;;;9.40;7.85;;;;;;;;;;5002528;28;20254;-67
2021/08/19 09:57:47;;;;;;;9.80;7.82;;;;;;;;;;5005281;23;20620;-81
2021/08/19 10:00:36;;;;;;;12.35;7.03;;;;;;;;;;4987097;28;20185;-79
2021/08/19 10:03:02;;;;;;;8.73;6.75;;;;;;;;;;4987591;28;20180;-77
2021/08/19 10:05:27;;;;;;;7.80;6.90;;;;;;;;;;4988537;28;20215;-77
2021/08/19 10:07:52;;;;;;;7.53;6.83;;;;;;;;;;4991853;28;20183;-74
2021/08/19 10:10:18;;;;;;;7.70;6.57;;;;;;;;;;4991532;28;20407;-80
2021/08/19 10:12:47;;;;;;;9.45;6.13;;;;;;;;;;5021450;23;20254;-54
2021/08/19 10:15:13;;;;;;;7.60;5.57;;;;;;;;;;4997475;28;20179;-56
2021/08/19 10:17:40;;;;;;;8.13;6.45;;;;;;;;;;5002260;28;20187;-55
2021/08/19 10:20:10;;;;;;;7.00;5.78;;;;;;;;;;5000550;28;20191;-56
2021/08/19 10:22:35;;;;;;;7.47;6.75;;;;;;;;;;4990676;28;20277;-57
2021/08/19 10:25:01;;;;;;;5.97;5.30;;;;;;;;;;4969591;28;20268;-57
2021/08/19 10:27:27;;;;;;;5.35;4.68;;;;;;;;;;4974911;28;20275;-58
2021/08/19 10:29:54;;;;;;;8.45;5.70;;;;;;;;;;5000786;28;20195;-56
2021/08/19 10:32:27;;;;;;;5.88;4.75;;;;;;;;;;4987273;28;20218;-58
2021/08/19 10:34:59;;;;;;;6.50;5.43;;;;;;;;;;4989192;28;20176;-57
2021/08/19 10:37:43;;;;;;;7.47;5.05;;;;;;;;;;4988774;28;20767;-57
2021/08/19 10:40:18;;;;;;;5.20;4.70;;;;;;;;;;4999834;28;20263;-57
2021/08/19 10:42:43;;;;;;;5.70;4.78;;;;;;;;;;4991797;28;20219;-56
2021/08/19 10:45:28;;;;;;;6.50;4.43;;;;;;;;;;4982383;28;20285;-57
2021/08/19 10:47:54;;;;;;;6.20;4.82;;;;;;;;;;4985611;28;20195;-56
2021/08/19 10:50:20;;;;;;;5.72;4.68;;;;;;;;;;4988312;28;20184;-57
2021/08/19 10:52:47;;;;;;;5.88;5.00;;;;;;;;;;4979326;28;20204;-55
2021/08/19 10:55:13;;;;;;;5.00;4.50;;;;;;;;;;4988529;28;20188;-57
2021/08/19 10:58:08;;;;;;;7.03;5.00;;;;;;;;;;4986311;28;20263;-56
2021/08/19 11:00:38;;;;;;;5.82;4.82;;;;;;;;;;4979477;28;20671;-56
2021/08/19 11:03:03;;;;;;;7.22;5.43;;;;;;;;;;4985428;28;20706;-56
2021/08/19 11:05:28;;;;;;;5.53;5.03;;;;;;;;;;4984868;28;20212;-57
2021/08/19 11:07:57;;;;;;;6.70;6.00;;;;;;;;;;4983341;28;20179;-56
2021/08/19 11:10:30;;;;;;;9.43;5.95;;;;;;;;;;4988809;28;20172;-57
2021/08/19 11:13:01;;;;;;;7.70;6.90;;;;;;;;;;4989539;28;20212;-56
2021/08/19 11:15:27;;;;;;;9.20;7.07;;;;;;;;;;4984686;28;20172;-57
2021/08/19 11:17:53;;;;;;;8.80;7.40;;;;;;;;;;4979387;28;20191;-55
2021/08/19 11:20:22;;;;;;;11.82;8.00;;;;;;;;;;4986645;28;20259;-54
2021/08/19 11:23:02;;;;;;;9.50;8.52;;;;;;;;;;4988153;28;20295;-58
2021/08/19 11:25:28;;;;;;;9.40;8.40;;;;;;;;;;4989471;28;20674;-55
2021/08/19 11:27:54;;;;;;;9.02;8.13;;;;;;;;;;4985672;28;20271;-55
2021/08/19 11:30:33;;;;;;;9.45;8.52;;;;;;;;;;4979435;28;20172;-56
2021/08/19 11:33:10;;;;;;;9.07;8.18;;;;;;;;;;4978773;28;20291;-53
2021/08/19 11:35:35;;;;;;;8.98;8.07;;;;;;;;;;4990940;28;20180;-56
2021/08/19 11:38:14;;;;;;;8.98;8.02;;;;;;;;;;4995337;28;20246;-53
2021/08/19 11:40:40;;;;;;;10.02;9.07;;;;;;;;;;4991901;28;20217;-52
2021/08/19 11:43:21;;;;;;;11.73;9.00;;;;;;;;;;4986085;28;20209;-53
2021/08/19 11:45:47;;;;;;;9.65;8.73;;;;;;;;;;4992937;28;20223;-54
2021/08/19 11:48:12;;;;;;;9.75;8.75;;;;;;;;;;4981055;28;20172;-55
2021/08/19 11:50:38;;;;;;;9.57;8.13;;;;;;;;;;4987386;28;20655;-53
2021/08/19 11:53:03;;;;;;;8.38;7.50;;;;;;;;;;4983834;28;20731;-56
2021/08/19 11:55:29;;;;;;;11.77;8.82;;;;;;;;;;4992370;28;20180;-53
2021/08/19 11:58:16;;;;;;;11.55;10.05;;;;;;;;;;4988761;28;20192;-54
2021/08/19 12:01:02;;;;;;;12.23;10.55;;;;;;;;;;4985715;28;20222;-54
2021/08/19 12:03:27;;;;;;;11.75;10.55;;;;;;;;;;4985354;28;20183;-54
2021/08/19 12:06:18;;;;;;;12.60;10.70;;;;;;;;;;4990834;28;20290;-54
2021/08/19 12:08:48;;;;;;;12.35;10.32;;;;;;;;;;4985181;28;20581;-54
2021/08/19 12:11:15;;;;;;;16.92;10.25;;;;;;;;;;4984884;28;20218;-54
2021/08/19 12:13:40;;;;;;;13.07;10.95;;;;;;;;;;4996560;28;20222;-54
2021/08/19 12:16:07;;;;;;;11.70;10.43;;;;;;;;;;4987282;28;20217;-54
2021/08/19 12:18:32;;;;;;;11.93;10.73;;;;;;;;;;4981488;28;20271;-55
2021/08/19 12:21:17;;;;;;;15.63;10.88;;;;;;;;;;4982108;28;20263;-54
2021/08/19 12:23:44;;;;;;;12.88;11.55;;;;;;;;;;4988643;28;20245;-55
2021/08/19 12:26:10;;;;;;;12.70;11.50;;;;;;;;;;4991895;28;20691;-55
2021/08/19 12:28:36;;;;;;;12.52;11.32;;;;;;;;;;4992259;28;20184;-54
2021/08/19 12:31:03;;;;;;;13.68;11.15;;;;;;;;;;4987509;28;20495;-54
2021/08/19 12:33:32;;;;;;;10.65;9.52;;;;;;;;;;4989563;28;20196;-54
2021/08/19 12:36:13;;;;;;;11.18;10.07;;;;;;;;;;4985937;28;20215;-55
2021/08/19 12:38:38;;;;;;;8.45;7.70;;;;;;;;;;4983717;28;20184;-54
2021/08/19 12:41:11;;;;;;;9.85;8.85;;;;;;;;;;4989165;28;20632;-54
2021/08/19 12:43:38;;;;;;;10.18;8.85;;;;;;;;;;4985070;28;20201;-54
2021/08/19 12:46:07;;;;;;;10.00;8.52;;;;;;;;;;4983046;28;20214;-55
2021/08/19 12:48:34;;;;;;;9.80;8.93;;;;;;;;;;4978489;28;20172;-54
2021/08/19 12:51:15;;;;;;;10.32;9.25;;;;;;;;;;4982163;28;20683;-53
2021/08/19 12:53:59;;;;;;;11.63;9.68;;;;;;;;;;4984845;28;20195;-53
2021/08/19 12:56:25;;;;;;;10.40;9.43;;;;;;;;;;4971979;28;20231;-54
2021/08/19 12:58:50;;;;;;;13.65;9.73;;;;;;;;;;4981701;28;20272;-53
2021/08/19 13:01:16;;;;;;;11.20;9.75;;;;;;;;;;4979697;28;20267;-54
2021/08/19 13:03:41;;;;;;;9.88;8.88;;;;;;;;;;4981099;28;20695;-54
2021/08/19 13:06:06;;;;;;;8.48;7.68;;;;;;;;;;4989190;28;20341;-54
2021/08/19 13:08:31;;;;;;;9.07;8.15;;;;;;;;;;4985096;28;20715;-54
2021/08/19 13:10:56;;;;;;;10.00;9.10;;;;;;;;;;4990372;28;20271;-54
2021/08/19 13:13:23;;;;;;;11.20;10.10;;;;;;;;;;4989299;28;20726;-53
2021/08/19 13:15:48;;;;;;;12.73;10.95;;;;;;;;;;4989292;28;20565;-56
2021/08/19 13:18:14;;;;;;;12.55;11.25;;;;;;;;;;4986757;28;20193;-53
2021/08/19 13:20:39;;;;;;;13.02;11.45;;;;;;;;;;4987086;28;20598;-53
2021/08/19 13:23:05;;;;;;;12.18;10.90;;;;;;;;;;4987916;28;20822;-53
2021/08/19 13:25:30;;;;;;;9.55;8.05;;;;;;;;;;4991432;28;20203;-52
2021/08/19 13:27:55;;;;;;;9.07;8.15;;;;;;;;;;4978456;28;20664;-54
2021/08/19 13:30:21;;;;;;;8.65;7.85;;;;;;;;;;5003958;28;20180;-53
2021/08/19 13:32:47;;;;;;;7.53;6.82;;;;;;;;;;4987749;28;20203;-54
2021/08/19 13:35:13;;;;;;;5.63;5.13;;;;;;;;;;4983745;28;20172;-54
2021/08/19 13:37:38;;;;;;;5.55;4.97;;;;;;;;;;5003984;28;20540;-54
2021/08/19 13:40:04;;;;;;;6.07;5.57;;;;;;;;;;4987820;28;20183;-52
2021/08/19 13:42:29;;;;;;;5.88;5.30;;;;;;;;;;4990410;28;20223;-53
2021/08/19 13:44:54;;;;;;;7.38;6.07;;;;;;;;;;4990816;28;20192;-53
2021/08/19 13:47:19;;;;;;;7.27;6.07;;;;;;;;;;4983020;28;20295;-53
2021/08/19 13:49:44;;;;;;;8.20;6.72;;;;;;;;;;4989280;28;20426;-53
2021/08/19 13:52:10;;;;;;;8.32;7.03;;;;;;;;;;4982277;28;20199;-53
2021/08/19 13:54:35;;;;;;;12.43;7.55;;;;;;;;;;4990337;28;20183;-53
2021/08/19 13:57:06;;;;;;;10.57;7.88;;;;;;;;;;4984000;28;20651;-55
2021/08/19 13:59:35;;;;;;;9.32;7.63;;;;;;;;;;4989637;28;20318;-54
2021/08/19 14:02:00;;;;;;;9.77;7.57;;;;;;;;;;4985537;28;20560;-54
2021/08/19 14:04:25;;;;;;;9.18;8.15;;;;;;;;;;4983756;28;20185;-53
2021/08/19 14:06:51;;;;;;;8.98;8.07;;;;;;;;;;4987000;28;20223;-55
2021/08/19 14:09:16;;;;;;;8.77;7.97;;;;;;;;;;4990857;28;20202;-53
2021/08/19 14:11:42;;;;;;;8.95;8.00;;;;;;;;;;4989884;28;20184;-53
2021/08/19 14:14:07;;;;;;;10.55;9.45;;;;;;;;;;4989447;28;21203;-60
2021/08/19 14:16:32;;;;;;;10.77;9.52;;;;;;;;;;4984546;28;20186;-56
2021/08/19 14:18:57;;;;;;;11.43;9.27;;;;;;;;;;4979075;28;20569;-55
2021/08/19 14:21:23;;;;;;;10.35;9.13;;;;;;;;;;4983148;28;20205;-56
2021/08/19 14:23:48;;;;;;;10.93;9.65;;;;;;;;;;4982897;28;20674;-57
2021/08/19 14:26:13;;;;;;;12.38;9.90;;;;;;;;;;4971559;28;20734;-57
2021/08/19 14:28:39;;;;;;;12.88;9.82;;;;;;;;;;4980364;28;20207;-56
2021/08/19 14:31:05;;;;;;;10.85;9.65;;;;;;;;;;4988859;28;20643;-55
2021/08/19 14:33:30;;;;;;;12.32;10.00;;;;;;;;;;4990218;28;20250;-57